createdAt,value
2018-07-20T05:39:47.944Z,8.38
2018-07-20T05:42:16.228Z,13.54
2018-07-20T05:44:44.504Z,11.26
2018-07-20T05:47:12.805Z,13.10
2018-07-20T05:49:41.076Z,10.88
2018-07-20T05:52:09.845Z,9.80
2018-07-20T05:54:38.112Z,14.72
2018-07-20T05:57:06.376Z,14.68
2018-07-20T05:59:34.668Z,9.98
2018-07-20T06:02:02.933Z,11.70
2018-07-20T06:04:31.228Z,12.36
2018-07-20T06:06:59.501Z,14.06
2018-07-20T06:09:27.819Z,15.58
2018-07-20T06:11:56.085Z,12.50
2018-07-20T06:14:24.358Z,13.26
2018-07-20T06:16:52.652Z,13.90
2018-07-20T06:19:20.911Z,9.54
2018-07-20T06:21:49.209Z,13.04
2018-07-20T06:24:17.465Z,11.72
2018-07-20T06:26:45.749Z,13.68
2018-07-20T06:29:14.043Z,18.44
2018-07-20T06:31:42.369Z,15.44
2018-07-20T06:34:10.642Z,16.00
2018-07-20T06:36:38.134Z,17.22
2018-07-20T06:39:06.425Z,16.94
2018-07-20T06:41:34.683Z,16.88
2018-07-20T06:44:02.968Z,16.44
2018-07-20T06:46:31.254Z,17.22
2018-07-20T06:48:59.540Z,17.72
2018-07-20T06:51:27.797Z,16.80
2018-07-20T06:53:56.104Z,17.16
2018-07-20T06:56:24.408Z,17.98
2018-07-20T06:58:52.697Z,16.50
2018-07-20T07:01:20.991Z,17.86
2018-07-20T07:03:49.275Z,16.26
2018-07-20T07:06:17.584Z,17.96
2018-07-20T07:08:45.844Z,16.10
2018-07-20T07:11:14.170Z,16.74
2018-07-20T07:13:42.461Z,16.26
2018-07-20T07:16:10.754Z,16.84
2018-07-20T07:18:39.032Z,16.14
2018-07-20T07:21:07.320Z,16.00
2018-07-20T07:23:35.656Z,13.98
2018-07-20T07:26:03.900Z,14.84
2018-07-20T07:28:32.151Z,15.46
2018-07-20T07:31:00.415Z,15.40
2018-07-20T07:33:28.703Z,14.64
2018-07-20T07:35:57.119Z,15.28
2018-07-20T07:38:25.342Z,15.96
2018-07-20T07:40:53.612Z,15.64
2018-07-20T07:43:21.889Z,15.84
2018-07-20T07:45:50.180Z,16.68
2018-07-20T07:48:18.446Z,12.70
2018-07-20T07:50:46.741Z,16.20
2018-07-20T07:53:14.998Z,15.60
2018-07-20T07:55:43.280Z,14.18
2018-07-20T07:58:11.572Z,13.46
2018-07-20T08:00:39.825Z,14.18
2018-07-20T08:03:08.089Z,14.04
2018-07-20T08:05:36.371Z,13.74
2018-07-20T08:08:04.663Z,12.84
2018-07-20T08:10:32.928Z,13.78
2018-07-20T08:13:01.179Z,10.72
2018-07-20T08:15:29.468Z,11.50
2018-07-20T08:17:57.730Z,11.72
2018-07-20T08:20:26.036Z,12.54
2018-07-20T08:22:54.363Z,11.52
2018-07-20T08:25:22.603Z,10.78
2018-07-20T08:27:50.896Z,10.22
2018-07-20T08:30:19.160Z,12.02
2018-07-20T08:32:47.440Z,10.50
2018-07-20T08:35:15.727Z,11.98
2018-07-20T08:37:44.021Z,12.24
2018-07-20T08:40:12.285Z,12.86
2018-07-20T08:42:39.800Z,11.58
2018-07-20T08:45:08.065Z,12.92
2018-07-20T08:47:36.347Z,11.98
2018-07-20T08:50:04.604Z,12.94
2018-07-20T08:52:32.891Z,14.20
2018-07-20T08:55:01.157Z,12.84
2018-07-20T08:57:29.444Z,9.58
2018-07-20T08:59:57.743Z,11.92
2018-07-20T09:02:26.013Z,12.04
2018-07-20T09:04:54.268Z,10.68
2018-07-20T09:07:22.560Z,10.44
2018-07-20T09:09:50.839Z,12.62
2018-07-20T09:12:19.105Z,11.84
2018-07-20T09:14:47.411Z,11.56
2018-07-20T09:17:15.681Z,10.56
2018-07-20T09:19:43.199Z,10.34
2018-07-20T09:22:11.464Z,11.22
2018-07-20T09:24:40.760Z,9.50
2018-07-20T09:27:09.026Z,10.94
2018-07-20T09:32:30.252Z,9.14
2018-07-20T09:35:01.587Z,9.62
2018-07-20T09:37:29.883Z,10.62
2018-07-20T09:39:58.149Z,10.36
2018-07-20T09:42:26.433Z,9.38
2018-07-20T09:44:53.939Z,9.38
2018-07-20T09:47:22.209Z,10.28
2018-07-20T09:49:50.506Z,9.60
2018-07-20T09:52:18.784Z,9.64
2018-07-20T09:54:50.723Z,8.68
2018-07-20T09:57:18.252Z,10.24
2018-07-20T09:59:46.551Z,11.34
2018-07-20T10:02:14.785Z,9.58
2018-07-20T10:04:43.076Z,9.10
2018-07-20T10:07:11.329Z,8.98
2018-07-20T10:09:39.613Z,8.26
2018-07-20T10:12:07.863Z,8.76
2018-07-20T10:14:36.146Z,7.52
2018-07-20T10:17:04.397Z,9.12
2018-07-20T10:19:32.683Z,8.58
2018-07-20T10:22:00.929Z,7.48
2018-07-20T10:24:29.208Z,8.12
2018-07-20T10:26:56.700Z,7.70
2018-07-20T10:29:24.977Z,8.56
2018-07-20T10:31:53.231Z,7.34
2018-07-20T10:34:21.518Z,7.68
2018-07-20T10:36:49.808Z,7.80
2018-07-20T10:39:18.156Z,7.58
2018-07-20T10:41:46.430Z,8.30
2018-07-20T10:44:14.721Z,8.56
2018-07-20T10:46:42.992Z,7.36
2018-07-20T10:49:11.251Z,8.40
2018-07-20T10:51:39.537Z,8.40
2018-07-20T10:54:08.720Z,7.68
2018-07-20T10:56:37.032Z,7.26
2018-07-20T10:59:05.295Z,7.30
2018-07-20T11:01:33.620Z,6.94
2018-07-20T11:04:01.856Z,7.20
2018-07-20T11:06:30.113Z,7.20
2018-07-20T11:09:08.760Z,6.84
2018-07-20T11:11:37.065Z,7.32
2018-07-20T11:14:05.341Z,7.42
2018-07-20T11:16:33.598Z,7.04
2018-07-20T11:19:01.120Z,6.38
2018-07-20T11:21:29.380Z,7.84
2018-07-20T11:23:57.675Z,7.22
2018-07-20T11:26:25.952Z,6.16
2018-07-20T11:28:54.241Z,7.48
2018-07-20T11:31:22.524Z,6.76
2018-07-20T11:33:50.012Z,6.80
2018-07-20T11:36:18.309Z,8.52
2018-07-20T11:38:46.599Z,6.48
2018-07-20T11:41:14.871Z,8.64
2018-07-20T11:43:43.145Z,7.12
2018-07-20T11:46:11.421Z,7.30
2018-07-20T11:48:39.668Z,6.52
2018-07-20T11:51:07.956Z,7.48
2018-07-20T11:53:36.210Z,7.44
2018-07-20T11:56:04.537Z,8.10
2018-07-20T11:58:32.749Z,6.76
2018-07-20T12:01:01.044Z,7.64
2018-07-20T12:03:29.311Z,6.94
2018-07-20T12:05:57.566Z,8.16
2018-07-20T12:08:25.848Z,7.96
2018-07-20T12:10:54.096Z,6.74
2018-07-20T12:13:22.389Z,9.62
2018-07-20T12:15:50.636Z,7.12
2018-07-20T12:18:18.928Z,6.60
2018-07-20T12:20:47.189Z,7.30
2018-07-20T12:23:15.444Z,6.32
2018-07-20T12:25:42.945Z,6.86
2018-07-20T12:28:11.236Z,6.88
2018-07-20T12:30:39.501Z,6.72
2018-07-20T12:33:07.761Z,6.84
2018-07-20T12:35:36.048Z,6.48
2018-07-20T12:38:04.313Z,6.48
2018-07-20T12:40:32.564Z,6.68
2018-07-20T12:43:00.853Z,6.62
2018-07-20T12:45:29.144Z,6.34
2018-07-20T12:47:57.437Z,6.72
2018-07-20T12:50:25.735Z,5.92
2018-07-20T12:52:53.989Z,5.52
2018-07-20T12:55:22.235Z,6.44
2018-07-20T12:57:50.520Z,5.90
2018-07-20T13:00:19.748Z,6.78
2018-07-20T13:03:01.517Z,6.18
2018-07-20T13:05:29.777Z,6.52
2018-07-20T13:07:58.052Z,4.96
2018-07-20T13:10:26.304Z,6.36
2018-07-20T13:12:54.580Z,5.32
2018-07-20T13:15:22.856Z,5.84
2018-07-20T13:17:51.166Z,6.10
2018-07-20T13:20:19.433Z,5.62
2018-07-20T13:22:47.723Z,4.78
2018-07-20T13:25:15.984Z,5.88
